Pittsfield, MA

8:46 PM EST on December 25, 2014 (GMT -0500)
Morse State | Change Station
CLOSE
Current Station
Airport
Location: Bennington,
Elevation: 827 ft
Nearby Weather Stations

Elev 827 ft 42.89 °N, 73.25 °W | Updated 52 minutes ago

Overcast
Overcast
41 °F
Feels Like 35 °F
N
10
Wind Variable Wind from West
Gusts 20 mph

Today
High -- | Low -- °F
--% Chance of Precip.
Yesterday
High -- | Low -- °F
Precip. -- in
7:20 AM 4:25 PM
Waxing Crescent, 21% visible
Pressure 29.97 in
Visibility 10.0 miles
Clouds Few 3800 ft
Scattered Clouds 4500 ft
Mostly Cloudy 5000 ft
Windchill 35 °F
Dew Point 30 °F
Humidity 65%
Rainfall 0.17 in
Snow Depth Not available.
UV 0 out of 12
Pollen .10 out of 12
Air Quality Not available.
Flu Activity Not available.
METAR KDDH 260054Z AUTO 28009G17KT 10SM FEW038 SCT045 BKN050 05/M01 A2995 RMK AO2 SLP147 T00501011

More Conditions Fewer Conditions

Pressure 29.97 in
Visibility 10.0 miles
Clouds Few 3800 ft
Scattered Clouds 4500 ft
Mostly Cloudy 5000 ft
Windchill 35 °F
Dew Point 30 °F
Humidity 65%
Rainfall 0.17 in
Snow Depth Not available.
UV 0 out of 12
Pollen .10 out of 12
Air Quality Not available.
Flu Activity Not available.
METAR KDDH 260054Z AUTO 28009G17KT 10SM FEW038 SCT045 BKN050 05/M01 A2995 RMK AO2 SLP147 T00501011

More Conditions Fewer Conditions

10-Day Weather Forecast

Almanac

Astronomy

Dec. 25, 2014 Rise Set
Actual Time
Civil Twilight
Nautical Twilight
Astronomical Twilight
Moon
Length of Visible Light
Length of Day
Tomorrow will be .
, % of the Moon is Illuminated

Today's Extremes

State Highs State Lows

Community

WunderPhotos

Upload Photos

1,780,495 photos uploaded!

WunderBlogs® & News

Nearby

Air Quality

  Air Quality AQ Index Pollutant
Not available.

Snow Depth

Station Depth Elevation

Earthquake Activity

City Distance Mag. Time & Date
Minimum magnitude displayed is 2.5.

Coastal Water Temperatures

Place Temperature

Nearby Weather Stations